Time;durP1;ratioP1;P1;durP2;ratioP2;P2;SDS_P1;SDS_P2;PMS_P1;PMS_P2;Temp;Humidity;BMP_temperature;BMP_pressure;BME280_temperature;BME280_humidity;BME280_pressure;Samples;Min_cycle;Max_cycle;Signal;HPM_P1;HPM_P2
2021/04/18 00:01:31;;;;;;;8.43;3.72;;;9.80;99.90;;;;;;5038380;28;20212;-80
2021/04/18 00:03:58;;;;;;;5.95;4.25;;;9.70;99.90;;;;;;5036412;28;20641;-80
2021/04/18 00:06:26;;;;;;;8.18;4.32;;;9.70;99.90;;;;;;5042102;28;20196;-80
2021/04/18 00:08:53;;;;;;;5.32;4.28;;;9.70;99.90;;;;;;5027998;28;20437;-80
2021/04/18 00:11:21;;;;;;;6.13;4.05;;;9.60;99.90;;;;;;5042415;28;20216;-81
2021/04/18 00:13:48;;;;;;;4.85;3.60;;;9.50;99.90;;;;;;5052474;28;20188;-79
2021/04/18 00:16:15;;;;;;;4.68;3.95;;;9.50;99.90;;;;;;5027007;28;20196;-79
2021/04/18 00:18:41;;;;;;;9.35;4.40;;;9.50;99.90;;;;;;5037089;28;20195;-78
2021/04/18 00:21:08;;;;;;;6.72;4.05;;;9.40;99.90;;;;;;5026556;28;20219;-80
2021/04/18 00:23:36;;;;;;;5.65;4.32;;;9.50;99.90;;;;;;5024928;28;20275;-81
2021/04/18 00:26:02;;;;;;;8.63;4.53;;;9.60;99.90;;;;;;5037630;28;20746;-79
2021/04/18 00:28:30;;;;;;;8.15;3.70;;;9.60;99.90;;;;;;5030670;28;20196;-80
2021/04/18 00:30:58;;;;;;;8.88;5.70;;;9.70;99.90;;;;;;5030741;28;20231;-80
2021/04/18 00:33:25;;;;;;;5.65;3.75;;;9.80;99.90;;;;;;5029899;28;20202;-80
2021/04/18 00:35:52;;;;;;;5.88;4.00;;;9.80;99.90;;;;;;5046320;28;20187;-82
2021/04/18 00:38:19;;;;;;;8.32;4.70;;;9.80;99.90;;;;;;5046672;28;20191;-79
2021/04/18 00:40:47;;;;;;;10.05;4.97;;;9.70;99.90;;;;;;5029093;28;20213;-80
2021/04/18 00:43:13;;;;;;;6.28;4.10;;;9.60;99.90;;;;;;5028814;28;20270;-81
2021/04/18 00:45:41;;;;;;;6.95;4.45;;;9.40;99.90;;;;;;5031228;28;20254;-80
2021/04/18 00:48:09;;;;;;;4.70;4.10;;;9.30;99.90;;;;;;5027556;28;20204;-80
2021/04/18 00:50:37;;;;;;;3.65;3.35;;;9.30;99.90;;;;;;5025943;28;20802;-80
2021/04/18 00:53:07;;;;;;;5.90;3.92;;;9.10;99.90;;;;;;5029654;28;20208;-80
2021/04/18 00:55:35;;;;;;;6.15;3.83;;;9.10;99.90;;;;;;5037054;28;20184;-80
2021/04/18 00:58:05;;;;;;;5.63;3.13;;;9.20;99.90;;;;;;5029304;28;20561;-80
2021/04/18 01:00:32;;;;;;;4.70;3.80;;;9.20;99.90;;;;;;5028946;28;20204;-80
2021/04/18 01:02:59;;;;;;;9.20;4.20;;;9.00;99.90;;;;;;5077284;22;20611;-83
2021/04/18 01:05:28;;;;;;;5.35;4.55;;;9.10;99.90;;;;;;5029238;28;20196;-80
2021/04/18 01:07:55;;;;;;;4.85;3.67;;;9.10;99.90;;;;;;5010217;28;20200;-79
2021/04/18 01:10:22;;;;;;;8.68;4.85;;;9.10;99.90;;;;;;5035952;28;20236;-80
2021/04/18 01:12:50;;;;;;;7.30;3.85;;;9.10;99.90;;;;;;5026899;28;20220;-82
2021/04/18 01:15:19;;;;;;;5.90;3.17;;;8.90;99.90;;;;;;5029932;28;20620;-80
2021/04/18 01:17:47;;;;;;;4.60;4.20;;;8.80;99.90;;;;;;5007675;28;20201;-80
2021/04/18 01:20:18;;;;;;;5.30;4.15;;;9.00;99.90;;;;;;5040129;28;20196;-80
2021/04/18 01:22:47;;;;;;;8.30;4.15;;;9.00;99.90;;;;;;5037742;28;20223;-81
2021/04/18 01:25:41;;;;;;;7.78;4.55;;;8.90;99.90;;;;;;5037951;28;20255;-82
2021/04/18 01:28:18;;;;;;;7.18;4.78;;;8.90;99.90;;;;;;5033216;28;20199;-81
2021/04/18 01:30:46;;;;;;;7.97;4.70;;;8.80;99.90;;;;;;5045149;28;20204;-80
2021/04/18 01:33:13;;;;;;;9.18;5.28;;;8.80;99.90;;;;;;5044596;28;20218;-81
2021/04/18 01:35:46;;;;;;;5.20;4.38;;;8.80;99.90;;;;;;5045143;28;20242;-80
2021/04/18 01:38:17;;;;;;;6.68;5.45;;;8.60;99.90;;;;;;5035752;28;20285;-81
2021/04/18 01:40:44;;;;;;;10.98;4.55;;;8.70;99.90;;;;;;5046657;28;20192;-81
2021/04/18 01:43:16;;;;;;;6.88;5.25;;;8.80;99.90;;;;;;5036572;28;20220;-81
2021/04/18 01:45:47;;;;;;;6.68;4.75;;;8.90;99.90;;;;;;5031566;28;20192;-80
2021/04/18 01:48:16;;;;;;;9.05;4.93;;;9.00;99.90;;;;;;5031454;28;20672;-80
2021/04/18 01:50:46;;;;;;;5.20;4.72;;;9.10;99.90;;;;;;5021589;28;20227;-81
2021/04/18 01:53:13;;;;;;;5.30;4.80;;;9.10;99.90;;;;;;5027310;28;20220;-83
2021/04/18 01:55:42;;;;;;;5.68;5.00;;;9.00;99.90;;;;;;5038388;28;20601;-80
2021/04/18 01:58:09;;;;;;;7.55;5.65;;;8.90;99.90;;;;;;5037733;28;20204;-80
2021/04/18 02:00:49;;;;;;;7.57;4.53;;;8.80;99.90;;;;;;5036852;28;20566;-80
2021/04/18 02:03:17;;;;;;;5.95;4.38;;;8.80;99.90;;;;;;5019687;28;20255;-82
2021/04/18 02:05:44;;;;;;;7.80;4.75;;;8.60;99.90;;;;;;5036594;28;20203;-80
2021/04/18 02:08:21;;;;;;;8.25;4.45;;;8.50;99.90;;;;;;5036426;28;20188;-81
2021/04/18 02:10:53;;;;;;;8.10;5.10;;;8.50;99.90;;;;;;5034965;28;20283;-82
2021/04/18 02:13:23;;;;;;;7.32;4.45;;;8.40;99.90;;;;;;5031056;28;20215;-80
2021/04/18 02:16:10;;;;;;;11.65;5.35;;;8.40;99.90;;;;;;5018016;28;20208;-81
2021/04/18 02:18:44;;;;;;;7.63;4.68;;;8.50;99.90;;;;;;5035564;28;20199;-82
2021/04/18 02:21:12;;;;;;;8.13;4.03;;;8.50;99.90;;;;;;5034794;28;20245;-80
2021/04/18 02:23:39;;;;;;;6.20;4.90;;;8.40;99.90;;;;;;5035943;28;20247;-80
2021/04/18 02:26:06;;;;;;;10.07;4.72;;;8.30;99.90;;;;;;5035843;28;20228;-82
2021/04/18 02:28:34;;;;;;;7.00;4.72;;;8.20;99.90;;;;;;5035744;28;20671;-83
2021/04/18 02:31:04;;;;;;;5.95;4.18;;;8.20;99.90;;;;;;5035795;28;20230;-79
2021/04/18 02:33:43;;;;;;;10.60;5.50;;;8.40;99.90;;;;;;5036416;28;20230;-79
2021/04/18 02:36:10;;;;;;;4.88;4.30;;;8.60;99.90;;;;;;5038730;28;20257;-80
2021/04/18 02:38:38;;;;;;;5.13;4.45;;;8.70;99.90;;;;;;5037901;28;20220;-79
2021/04/18 02:41:13;;;;;;;7.35;5.18;;;8.70;99.90;;;;;;5038061;28;20200;-79
2021/04/18 02:43:40;;;;;;;7.15;4.22;;;8.60;99.90;;;;;;5037637;28;20212;-80
2021/04/18 02:46:08;;;;;;;5.22;4.32;;;8.60;99.90;;;;;;5005813;28;20275;-80
2021/04/18 02:48:35;;;;;;;7.72;4.32;;;8.50;99.90;;;;;;5027614;28;20246;-80
2021/04/18 02:51:02;;;;;;;8.70;3.83;;;8.60;99.90;;;;;;5019626;28;20212;-81
2021/04/18 02:53:30;;;;;;;5.00;4.35;;;8.70;99.90;;;;;;5033477;28;20223;-80
2021/04/18 02:55:57;;;;;;;7.78;4.93;;;8.70;99.90;;;;;;5035776;28;20200;-80
2021/04/18 02:58:38;;;;;;;8.32;5.50;;;8.70;99.90;;;;;;5036060;28;20667;-80
2021/04/18 03:01:05;;;;;;;12.07;5.32;;;8.60;99.90;;;;;;5037762;28;20199;-80
2021/04/18 03:03:33;;;;;;;5.43;4.88;;;8.50;99.90;;;;;;5019687;28;20230;-78
2021/04/18 03:06:01;;;;;;;6.03;4.68;;;8.60;99.90;;;;;;5037848;28;20315;-81
2021/04/18 03:08:29;;;;;;;4.45;4.03;;;8.60;99.90;;;;;;5038421;28;20212;-81
2021/04/18 03:10:56;;;;;;;6.97;4.93;;;8.50;99.90;;;;;;5038757;28;20216;-81
2021/04/18 03:13:23;;;;;;;7.88;5.20;;;8.60;99.90;;;;;;5039184;28;20265;-80
2021/04/18 03:15:53;;;;;;;5.20;4.63;;;8.70;99.90;;;;;;5039345;28;20220;-80
2021/04/18 03:18:21;;;;;;;5.68;4.22;;;8.60;99.90;;;;;;5035743;28;20250;-80
2021/04/18 03:20:50;;;;;;;7.70;5.07;;;8.60;99.90;;;;;;5036114;28;20567;-80
2021/04/18 03:23:18;;;;;;;5.65;4.63;;;8.60;99.90;;;;;;5036207;28;20302;-80
2021/04/18 03:25:50;;;;;;;6.47;4.90;;;8.70;99.90;;;;;;5019933;28;20292;-80
2021/04/18 03:28:18;;;;;;;7.90;5.25;;;8.50;99.90;;;;;;5037420;28;20195;-81
2021/04/18 03:30:50;;;;;;;12.30;5.35;;;8.40;99.90;;;;;;5037789;28;20492;-80
2021/04/18 03:33:22;;;;;;;6.65;4.45;;;8.40;99.90;;;;;;5020538;28;20227;-80
2021/04/18 03:35:58;;;;;;;5.57;4.38;;;8.60;99.90;;;;;;5037724;28;20273;-80
2021/04/18 03:38:25;;;;;;;6.32;4.28;;;8.60;99.90;;;;;;5036326;28;20203;-81
2021/04/18 03:40:52;;;;;;;7.70;4.15;;;8.70;99.90;;;;;;5039113;28;20195;-80
2021/04/18 03:43:20;;;;;;;7.95;4.82;;;8.60;99.90;;;;;;5039715;28;20243;-80
2021/04/18 03:45:47;;;;;;;6.07;4.57;;;8.50;99.90;;;;;;5050920;28;20199;-82
2021/04/18 03:48:15;;;;;;;8.10;5.00;;;8.50;99.90;;;;;;5037794;28;20184;-84
2021/04/18 03:50:44;;;;;;;5.90;4.45;;;8.60;99.90;;;;;;5049736;28;20216;-81
2021/04/18 03:53:21;;;;;;;11.38;5.07;;;8.60;99.90;;;;;;5026175;28;20216;-81
2021/04/18 03:55:55;;;;;;;6.70;5.05;;;8.50;99.90;;;;;;5017737;28;20203;-81
2021/04/18 03:58:29;;;;;;;5.25;4.75;;;8.50;99.90;;;;;;5048513;28;20256;-82
2021/04/18 04:01:01;;;;;;;5.60;4.40;;;8.50;99.90;;;;;;5045814;28;20223;-79
2021/04/18 04:03:32;;;;;;;6.28;4.60;;;8.60;99.90;;;;;;5025756;28;20246;-80
2021/04/18 04:06:01;;;;;;;7.22;4.35;;;8.70;99.90;;;;;;5042307;28;20203;-80
2021/04/18 04:08:31;;;;;;;7.60;4.65;;;8.70;99.90;;;;;;5040671;28;20199;-79
2021/04/18 04:10:58;;;;;;;6.63;4.43;;;8.60;99.90;;;;;;5038192;28;20403;-80
2021/04/18 04:13:28;;;;;;;6.38;4.28;;;8.40;99.90;;;;;;5016185;28;20274;-78
2021/04/18 04:16:00;;;;;;;6.07;5.22;;;8.30;99.90;;;;;;5003659;28;20212;-80
2021/04/18 04:18:29;;;;;;;10.43;4.78;;;8.40;99.90;;;;;;5038519;28;20303;-81
2021/04/18 04:21:17;;;;;;;6.30;5.07;;;8.50;99.90;;;;;;5035435;28;20195;-80
2021/04/18 04:23:54;;;;;;;8.23;5.45;;;8.70;99.90;;;;;;5018505;28;20719;-80
2021/04/18 04:26:21;;;;;;;8.15;5.15;;;8.50;99.90;;;;;;5034694;28;20207;-81
2021/04/18 04:28:48;;;;;;;8.18;4.95;;;8.50;99.90;;;;;;5033853;28;20192;-80
2021/04/18 04:31:14;;;;;;;10.23;4.68;;;8.30;99.90;;;;;;5040328;28;20203;-82
2021/04/18 04:33:41;;;;;;;9.13;4.55;;;8.20;99.90;;;;;;5050702;28;20227;-82
2021/04/18 04:36:08;;;;;;;8.00;5.32;;;8.30;99.90;;;;;;5049056;28;20203;-80
2021/04/18 04:38:37;;;;;;;5.80;5.00;;;8.40;99.90;;;;;;5046189;28;20203;-80
2021/04/18 04:41:05;;;;;;;7.10;5.25;;;8.50;99.90;;;;;;5032007;28;20252;-86
2021/04/18 04:43:32;;;;;;;8.07;5.53;;;8.50;99.90;;;;;;5050693;28;20219;-86
2021/04/18 04:45:59;;;;;;;7.32;4.70;;;8.40;99.90;;;;;;5053105;28;20274;-83
2021/04/18 04:48:26;;;;;;;8.00;4.32;;;8.10;99.90;;;;;;5057899;28;20263;-82
2021/04/18 04:50:53;;;;;;;5.40;4.72;;;7.80;99.90;;;;;;5055487;28;20295;-82
2021/04/18 04:53:20;;;;;;;7.15;4.93;;;7.90;99.90;;;;;;5055780;28;20327;-83
2021/04/18 04:55:48;;;;;;;7.55;5.10;;;8.00;99.90;;;;;;5057504;28;20210;-81
2021/04/18 04:58:15;;;;;;;5.57;4.18;;;8.10;99.90;;;;;;5057723;28;20176;-81
2021/04/18 05:00:42;;;;;;;5.22;4.35;;;8.10;99.90;;;;;;5045263;28;20291;-83
2021/04/18 05:03:08;;;;;;;8.52;5.15;;;8.10;99.90;;;;;;5039250;28;20223;-81
2021/04/18 05:05:36;;;;;;;5.57;4.75;;;8.10;99.90;;;;;;5039519;28;20278;-81
2021/04/18 05:08:03;;;;;;;6.85;4.72;;;8.20;99.90;;;;;;5039197;28;20191;-80
2021/04/18 05:10:31;;;;;;;17.40;11.27;;;8.30;99.90;;;;;;5040910;28;20319;-78
2021/04/18 05:12:59;;;;;;;8.30;6.15;;;8.40;99.90;;;;;;5021577;28;20610;-82
2021/04/18 05:15:26;;;;;;;7.40;5.75;;;8.50;99.90;;;;;;5041112;28;20199;-80
2021/04/18 05:17:53;;;;;;;9.27;5.03;;;8.40;99.90;;;;;;5040571;28;20214;-81
2021/04/18 05:20:20;;;;;;;5.57;5.07;;;8.40;99.90;;;;;;5038130;28;20196;-80
2021/04/18 05:22:48;;;;;;;7.03;5.47;;;8.50;99.90;;;;;;5036086;28;20220;-80
2021/04/18 05:25:15;;;;;;;8.60;5.78;;;8.30;99.90;;;;;;5037842;28;20196;-82
2021/04/18 05:27:42;;;;;;;7.35;5.75;;;8.50;99.90;;;;;;5019426;28;20268;-80
2021/04/18 05:30:11;;;;;;;7.78;5.18;;;8.50;99.90;;;;;;5037227;28;20227;-81
2021/04/18 05:32:40;;;;;;;8.05;5.18;;;8.60;99.90;;;;;;5036612;28;20270;-80
2021/04/18 05:35:08;;;;;;;6.65;5.35;;;8.70;99.90;;;;;;5040401;28;20199;-80
2021/04/18 05:37:34;;;;;;;7.80;6.07;;;8.70;99.90;;;;;;5040347;28;20614;-80
2021/04/18 05:40:01;;;;;;;12.00;6.07;;;8.70;99.90;;;;;;5022065;28;20200;-79
2021/04/18 05:42:29;;;;;;;6.97;5.35;;;8.60;99.90;;;;;;5019047;28;20226;-82
2021/04/18 05:44:56;;;;;;;8.23;5.50;;;8.50;99.90;;;;;;5037647;28;20227;-81
2021/04/18 05:47:24;;;;;;;8.73;5.80;;;8.50;99.90;;;;;;5039144;28;20200;-79
2021/04/18 05:49:51;;;;;;;9.10;5.45;;;8.40;99.90;;;;;;5042394;28;20219;-82
2021/04/18 05:52:19;;;;;;;7.03;5.95;;;8.10;99.90;;;;;;5040695;28;20607;-80
2021/04/18 05:54:46;;;;;;;7.47;5.68;;;8.10;99.90;;;;;;5042028;28;20271;-81
2021/04/18 05:57:13;;;;;;;7.90;5.65;;;8.10;99.90;;;;;;5043706;28;20196;-81
2021/04/18 05:59:40;;;;;;;7.18;5.93;;;8.00;99.90;;;;;;5042759;28;20241;-80
2021/04/18 06:02:07;;;;;;;8.10;5.68;;;8.00;99.90;;;;;;5040869;28;20250;-82
2021/04/18 06:04:35;;;;;;;10.48;7.03;;;8.20;99.90;;;;;;5040049;28;20203;-82
2021/04/18 06:07:02;;;;;;;6.90;5.82;;;8.20;99.90;;;;;;5039528;28;20192;-81
2021/04/18 06:09:30;;;;;;;9.00;6.43;;;8.20;99.90;;;;;;5039941;28;20702;-81
2021/04/18 06:11:56;;;;;;;11.18;6.22;;;8.40;99.90;;;;;;5039469;28;20228;-81
2021/04/18 06:14:24;;;;;;;10.32;6.45;;;8.30;99.90;;;;;;5039718;28;20207;-80
2021/04/18 06:16:51;;;;;;;10.45;6.18;;;8.20;99.90;;;;;;5039774;28;20196;-79
2021/04/18 06:19:18;;;;;;;10.00;6.85;;;8.40;99.90;;;;;;5038005;28;20196;-78
2021/04/18 06:21:56;;;;;;;6.88;6.18;;;8.60;99.90;;;;;;5037999;28;20196;-80
2021/04/18 06:24:23;;;;;;;8.15;6.40;;;8.80;99.90;;;;;;5042903;28;20239;-86
2021/04/18 06:26:55;;;;;;;6.05;5.25;;;9.10;99.90;;;;;;5047995;28;20204;-82
2021/04/18 06:29:22;;;;;;;10.32;7.07;;;9.10;99.90;;;;;;5048277;28;20222;-81
2021/04/18 06:31:48;;;;;;;11.05;7.13;;;9.30;99.90;;;;;;5056523;28;20225;-85
2021/04/18 06:34:21;;;;;;;7.28;6.55;;;9.40;99.90;;;;;;5057762;28;20228;-84
2021/04/18 06:36:48;;;;;;;10.70;8.43;;;9.70;99.90;;;;;;5045601;28;20192;-81
2021/04/18 06:39:15;;;;;;;13.77;9.00;;;9.80;99.90;;;;;;5041848;28;20570;-80
2021/04/18 06:41:49;;;;;;;12.45;9.43;;;9.90;99.90;;;;;;5040467;28;20192;-80
2021/04/18 06:44:17;;;;;;;15.25;11.85;;;9.90;99.90;;;;;;5045379;28;20185;-80
2021/04/18 06:46:44;;;;;;;15.85;11.93;;;9.90;99.90;;;;;;5046053;28;20200;-79
2021/04/18 06:49:11;;;;;;;16.23;11.55;;;9.90;99.90;;;;;;5028260;28;20231;-83
2021/04/18 06:51:39;;;;;;;12.55;9.98;;;10.00;99.90;;;;;;5046943;28;20219;-82
2021/04/18 06:54:11;;;;;;;13.10;8.82;;;10.10;99.90;;;;;;5023948;28;20742;-79
2021/04/18 06:56:39;;;;;;;13.50;9.48;;;10.10;99.90;;;;;;5042156;28;20219;-80
2021/04/18 06:59:06;;;;;;;16.95;10.07;;;10.20;99.90;;;;;;5045288;28;20741;-83
2021/04/18 07:01:34;;;;;;;12.40;9.45;;;10.30;99.90;;;;;;5041825;28;20242;-81
2021/04/18 07:04:08;;;;;;;11.13;9.45;;;10.10;99.90;;;;;;5049085;22;20235;-33
2021/04/18 07:06:41;;;;;;;11.20;9.02;;;10.20;99.90;;;;;;5030423;28;20203;-35
2021/04/18 07:09:08;;;;;;;14.55;9.50;;;10.40;99.90;;;;;;5029660;28;20587;-34
2021/04/18 07:11:50;;;;;;;15.25;11.20;;;10.40;99.90;;;;;;5030003;28;20698;-33
2021/04/18 07:14:22;;;;;;;16.77;10.32;;;10.30;99.90;;;;;;5030539;28;20203;-33
2021/04/18 07:19:30;;;;;;;16.58;10.95;;;10.10;99.90;;;;;;5027093;28;20262;-35
2021/04/18 07:21:58;;;;;;;20.73;15.05;;;10.10;99.90;;;;;;5031445;28;20203;-35
2021/04/18 07:24:25;;;;;;;14.45;11.25;;;10.10;99.90;;;;;;5032597;28;20206;-34
2021/04/18 07:26:59;;;;;;;24.83;17.83;;;10.20;99.90;;;;;;5015777;28;20250;-33
2021/04/18 07:29:27;;;;;;;18.60;12.40;;;10.30;99.90;;;;;;4992098;28;20200;-34
2021/04/18 07:31:58;;;;;;;19.80;14.00;;;10.50;99.90;;;;;;4992143;28;20575;-35
2021/04/18 07:34:34;;;;;;;17.67;12.93;;;10.80;99.90;;;;;;4992327;28;20205;-34
2021/04/18 07:37:10;;;;;;;16.90;12.85;;;11.10;99.90;;;;;;4999778;28;20207;-33
2021/04/18 07:39:48;;;;;;;17.42;11.85;;;11.50;99.90;;;;;;5007128;28;20204;-34
2021/04/18 07:42:29;;;;;;;15.98;11.52;;;11.60;99.90;;;;;;4998008;28;20235;-34
2021/04/18 07:44:57;;;;;;;15.77;12.10;;;11.50;99.90;;;;;;5006619;28;20197;-34
2021/04/18 07:47:24;;;;;;;16.42;11.13;;;11.30;99.90;;;;;;5007267;28;20311;-34
2021/04/18 07:49:52;;;;;;;15.55;11.50;;;11.20;99.90;;;;;;5010705;28;20224;-34
2021/04/18 07:52:19;;;;;;;17.17;12.65;;;11.10;99.90;;;;;;5009877;28;20200;-34
2021/04/18 07:54:46;;;;;;;17.73;12.55;;;11.10;99.90;;;;;;5010255;28;20208;-33
2021/04/18 07:57:13;;;;;;;15.32;12.75;;;11.30;99.90;;;;;;5010944;28;20197;-34
2021/04/18 07:59:40;;;;;;;16.92;13.27;;;11.40;99.90;;;;;;5010794;28;20199;-34
2021/04/18 08:02:08;;;;;;;42.33;28.60;;;11.60;99.90;;;;;;5010213;28;20205;-35
2021/04/18 08:04:34;;;;;;;17.88;15.63;;;11.70;99.90;;;;;;5005935;28;20283;-33
2021/04/18 08:07:02;;;;;;;16.23;12.38;;;11.90;99.90;;;;;;5009725;28;20200;-35
2021/04/18 08:09:33;;;;;;;16.88;12.07;;;12.10;99.90;;;;;;5006002;28;20197;-33
2021/04/18 08:12:09;;;;;;;15.82;11.30;;;12.20;99.90;;;;;;5008766;28;20692;-33
2021/04/18 08:14:38;;;;;;;13.07;11.45;;;12.20;99.90;;;;;;5010209;28;20246;-33
2021/04/18 08:17:07;;;;;;;16.05;13.73;;;12.30;99.90;;;;;;5010327;28;20198;-33
2021/04/18 08:19:35;;;;;;;14.75;11.50;;;12.30;99.90;;;;;;5009987;28;20650;-35
2021/04/18 08:22:02;;;;;;;18.27;10.80;;;12.40;99.90;;;;;;5004339;28;20238;-33
2021/04/18 08:24:36;;;;;;;13.45;11.77;;;12.40;99.90;;;;;;5002213;28;20195;-36
2021/04/18 08:27:05;;;;;;;15.85;10.65;;;12.40;99.90;;;;;;5010254;28;20193;-33
2021/04/18 08:29:34;;;;;;;12.80;10.38;;;12.40;99.90;;;;;;5010038;28;20197;-33
2021/04/18 08:32:09;;;;;;;12.95;10.35;;;12.70;99.90;;;;;;5009335;28;20641;-34
2021/04/18 08:34:43;;;;;;;13.15;9.35;;;12.90;99.90;;;;;;5009194;28;20196;-34
2021/04/18 08:37:21;;;;;;;9.98;8.43;;;12.90;99.90;;;;;;5009523;28;20228;-35
2021/04/18 08:40:04;;;;;;;10.80;9.68;;;12.80;99.90;;;;;;5010353;28;20272;-33
2021/04/18 08:42:34;;;;;;;11.73;10.05;;;12.80;99.90;;;;;;5009748;28;20204;-33
2021/04/18 08:45:01;;;;;;;15.75;11.25;;;13.00;99.90;;;;;;5010016;28;20204;-33
2021/04/18 08:47:30;;;;;;;12.10;9.43;;;13.40;99.90;;;;;;5009762;28;20227;-36
2021/04/18 08:50:05;;;;;;;18.42;10.88;;;13.60;99.90;;;;;;5010143;28;20212;-33
2021/04/18 08:52:34;;;;;;;11.45;9.60;;;13.70;99.90;;;;;;5009795;28;20200;-35
2021/04/18 08:55:05;;;;;;;11.68;10.00;;;13.80;99.90;;;;;;5009657;28;20576;-33
2021/04/18 08:57:32;;;;;;;14.55;10.77;;;13.70;99.90;;;;;;5010497;28;20212;-34
2021/04/18 09:00:01;;;;;;;13.25;9.38;;;13.70;99.90;;;;;;5010334;28;20682;-33
2021/04/18 09:02:29;;;;;;;15.88;10.35;;;13.60;99.90;;;;;;5010301;28;20216;-34
2021/04/18 09:04:59;;;;;;;14.90;9.88;;;13.70;99.90;;;;;;5009580;28;20196;-34
2021/04/18 09:07:28;;;;;;;13.98;10.43;;;13.90;99.90;;;;;;5009869;28;20667;-34
2021/04/18 09:09:58;;;;;;;16.50;9.55;;;13.90;99.90;;;;;;5008339;28;20193;-33
2021/04/18 09:12:25;;;;;;;13.02;10.45;;;14.10;99.90;;;;;;5010112;28;20204;-34
2021/04/18 09:14:56;;;;;;;11.18;9.30;;;14.20;99.90;;;;;;5009591;28;20672;-35
2021/04/18 09:17:24;;;;;;;15.43;11.52;;;14.30;99.90;;;;;;5006374;28;20228;-35
2021/04/18 09:19:54;;;;;;;15.45;11.15;;;14.40;99.90;;;;;;5001714;28;20198;-34
2021/04/18 09:22:22;;;;;;;19.95;10.98;;;14.60;99.90;;;;;;5002711;28;20212;-35
2021/04/18 09:24:55;;;;;;;15.27;9.20;;;14.60;99.90;;;;;;4996948;28;20197;-35
2021/04/18 09:27:25;;;;;;;14.60;11.05;;;14.60;99.90;;;;;;5004259;28;20217;-34
2021/04/18 09:29:55;;;;;;;11.25;9.70;;;14.40;99.90;;;;;;5004686;28;20292;-34
2021/04/18 09:32:24;;;;;;;12.65;9.90;;;14.30;99.90;;;;;;5008679;28;20722;-34
2021/04/18 09:34:52;;;;;;;15.32;11.00;;;14.60;99.90;;;;;;5006064;28;20209;-35
2021/04/18 09:37:22;;;;;;;13.90;10.60;;;14.60;99.90;;;;;;5004415;28;20220;-35
2021/04/18 09:39:52;;;;;;;12.52;9.23;;;14.60;99.90;;;;;;5009315;28;20205;-35
2021/04/18 09:42:20;;;;;;;16.15;10.27;;;14.60;99.90;;;;;;5004437;28;20197;-36
2021/04/18 09:44:50;;;;;;;13.30;10.73;;;14.60;99.90;;;;;;5007003;28;20873;-34
2021/04/18 09:47:24;;;;;;;14.65;10.52;;;14.60;99.90;;;;;;5012769;28;20515;-34
2021/04/18 09:49:54;;;;;;;14.23;10.15;;;14.80;99.90;;;;;;5013098;28;20221;-34
2021/04/18 09:52:30;;;;;;;16.10;9.82;;;14.90;99.90;;;;;;5012870;28;20204;-36
2021/04/18 09:55:12;;;;;;;17.85;10.13;;;15.00;99.90;;;;;;5012926;28;20736;-34
2021/04/18 09:57:48;;;;;;;13.27;8.82;;;15.20;99.90;;;;;;5012757;28;20216;-34
2021/04/18 10:00:26;;;;;;;11.45;8.48;;;15.00;99.90;;;;;;5013162;28;20205;-35
2021/04/18 10:03:02;;;;;;;21.52;11.18;;;15.00;99.90;;;;;;5012520;28;20200;-36
2021/04/18 10:05:32;;;;;;;10.98;9.20;;;15.40;99.90;;;;;;5012531;28;20219;-35
2021/04/18 10:08:21;;;;;;;13.43;10.68;;;15.50;99.90;;;;;;4997577;28;20248;-36
2021/04/18 10:10:50;;;;;;;13.70;9.88;;;15.40;99.90;;;;;;5000990;28;20228;-35
2021/04/18 10:13:39;;;;;;;13.27;10.10;;;15.90;99.90;;;;;;4998943;28;20285;-34
2021/04/18 10:16:07;;;;;;;11.60;9.07;;;16.30;99.90;;;;;;5006038;28;20204;-35
2021/04/18 10:18:35;;;;;;;12.80;8.57;;;16.60;99.90;;;;;;5012288;28;20228;-35
2021/04/18 10:21:17;;;;;;;11.60;8.43;;;16.80;99.90;;;;;;5011607;28;20630;-36
2021/04/18 10:23:46;;;;;;;15.38;11.52;;;17.00;99.90;;;;;;5008822;28;20631;-35
2021/04/18 10:26:14;;;;;;;11.13;9.32;;;16.90;99.90;;;;;;5011504;28;20201;-36
2021/04/18 10:28:41;;;;;;;15.18;12.05;;;17.00;99.90;;;;;;5008724;28;20217;-33
2021/04/18 10:31:17;;;;;;;11.50;9.15;;;16.90;99.90;;;;;;5008909;28;20347;-34
2021/04/18 10:33:45;;;;;;;12.88;9.32;;;17.00;99.90;;;;;;4998533;28;20560;-34
2021/04/18 10:36:12;;;;;;;11.75;7.90;;;16.90;99.90;;;;;;5006330;28;20232;-35
2021/04/18 10:38:40;;;;;;;15.05;8.48;;;17.00;99.90;;;;;;5001190;28;20239;-35
2021/04/18 10:41:07;;;;;;;11.73;9.32;;;17.30;99.90;;;;;;5002782;28;20192;-36
2021/04/18 10:43:35;;;;;;;10.20;9.18;;;17.50;99.90;;;;;;5000419;28;20197;-37
2021/04/18 10:46:03;;;;;;;11.57;8.35;;;17.50;99.90;;;;;;5003423;28;20244;-34
2021/04/18 10:48:29;;;;;;;12.43;8.38;;;17.20;99.90;;;;;;5002263;28;20590;-34
2021/04/18 10:50:56;;;;;;;16.02;10.82;;;16.70;99.90;;;;;;5002416;28;20241;-35
2021/04/18 10:53:23;;;;;;;10.25;8.82;;;16.50;99.90;;;;;;5001117;28;20252;-35
2021/04/18 10:55:50;;;;;;;13.23;8.73;;;16.70;99.90;;;;;;4999998;28;20213;-35
2021/04/18 10:58:17;;;;;;;13.15;9.98;;;16.70;99.90;;;;;;4994167;28;20257;-34
2021/04/18 11:00:45;;;;;;;15.63;9.25;;;16.90;99.90;;;;;;4999950;28;20695;-35
2021/04/18 11:03:12;;;;;;;11.55;8.35;;;17.10;99.90;;;;;;5000544;28;20201;-35
2021/04/18 11:05:38;;;;;;;9.95;8.93;;;17.30;99.90;;;;;;5000325;28;20243;-36
2021/04/18 11:08:06;;;;;;;9.70;8.80;;;17.40;99.90;;;;;;5000513;28;20300;-36
2021/04/18 11:10:33;;;;;;;10.23;9.13;;;17.50;99.90;;;;;;5000357;28;20206;-36
2021/04/18 11:13:00;;;;;;;11.00;9.27;;;17.60;99.90;;;;;;5000937;28;20629;-36
2021/04/18 11:15:27;;;;;;;10.32;9.35;;;17.80;99.90;;;;;;5002673;28;20289;-37
2021/04/18 11:17:54;;;;;;;12.73;8.85;;;17.90;99.90;;;;;;4999798;28;20347;-36
2021/04/18 11:20:22;;;;;;;9.68;8.68;;;18.00;99.90;;;;;;4998727;28;20687;-34
2021/04/18 11:22:48;;;;;;;8.90;7.22;;;18.10;99.90;;;;;;5001965;28;20199;-35
2021/04/18 11:25:15;;;;;;;9.50;8.32;;;18.10;99.90;;;;;;5000108;28;20227;-35
2021/04/18 11:27:42;;;;;;;10.25;8.60;;;18.20;99.90;;;;;;5002044;28;20225;-37
2021/04/18 11:30:12;;;;;;;10.70;8.63;;;18.10;99.90;;;;;;5001977;28;20192;-35
2021/04/18 11:32:39;;;;;;;9.40;8.20;;;18.10;99.90;;;;;;4999638;28;20216;-35
2021/04/18 11:35:08;;;;;;;13.07;7.63;;;17.90;99.90;;;;;;5001269;28;20201;-36
2021/04/18 11:37:36;;;;;;;8.25;7.43;;;17.50;99.90;;;;;;5000263;28;20213;-33
2021/04/18 11:40:15;;;;;;;16.17;11.80;;;17.80;99.90;;;;;;5000900;28;20259;-36
2021/04/18 11:42:44;;;;;;;10.38;8.38;;;18.00;99.90;;;;;;4999256;28;20214;-37
2021/04/18 11:45:14;;;;;;;11.20;9.25;;;18.20;99.90;;;;;;4998199;28;20189;-34
2021/04/18 11:47:42;;;;;;;11.05;8.25;;;18.10;99.90;;;;;;5007881;28;20224;-37
2021/04/18 11:50:10;;;;;;;11.50;9.15;;;17.80;99.90;;;;;;4995818;28;20200;-35
2021/04/18 11:52:36;;;;;;;9.68;8.23;;;17.90;99.90;;;;;;5002672;28;20669;-37
2021/04/18 11:55:07;;;;;;;11.55;8.43;;;18.00;99.90;;;;;;5002858;28;20203;-34
2021/04/18 11:57:34;;;;;;;10.13;8.02;;;17.60;99.90;;;;;;5011064;28;20224;-35
2021/04/18 12:00:00;;;;;;;9.18;8.18;;;17.40;99.90;;;;;;5011098;28;20197;-36
2021/04/18 12:02:28;;;;;;;8.13;6.90;;;17.70;99.90;;;;;;5010561;28;20193;-35
2021/04/18 12:04:55;;;;;;;10.07;7.55;;;18.10;99.90;;;;;;5011059;28;20683;-34
2021/04/18 12:07:22;;;;;;;8.45;7.00;;;18.30;99.90;;;;;;5011052;28;20271;-37
2021/04/18 12:09:49;;;;;;;9.18;7.97;;;18.40;99.90;;;;;;5010809;28;20247;-35
2021/04/18 12:12:15;;;;;;;9.55;7.65;;;18.90;99.90;;;;;;5010561;28;20224;-35
2021/04/18 12:14:43;;;;;;;8.60;7.78;;;18.90;99.90;;;;;;5011257;28;20200;-34
2021/04/18 12:17:10;;;;;;;11.68;10.02;;;19.10;99.90;;;;;;5010571;28;20247;-35
2021/04/18 12:19:37;;;;;;;10.93;9.07;;;19.20;99.90;;;;;;5010776;28;20324;-34
2021/04/18 12:22:03;;;;;;;12.75;8.77;;;19.20;99.90;;;;;;5010608;28;20221;-35
2021/04/18 12:24:30;;;;;;;10.50;8.48;;;19.70;99.90;;;;;;5010759;28;20749;-35
2021/04/18 12:26:57;;;;;;;10.23;8.15;;;20.60;99.90;;;;;;5010829;28;20200;-34
2021/04/18 12:29:24;;;;;;;9.35;7.68;;;20.40;99.90;;;;;;5003604;28;20218;-36
2021/04/18 12:31:51;;;;;;;10.25;8.20;;;19.90;99.90;;;;;;4998482;28;20232;-34
2021/04/18 12:34:17;;;;;;;12.10;8.43;;;19.30;99.90;;;;;;5000904;28;20212;-34
2021/04/18 12:36:44;;;;;;;7.82;7.13;;;19.00;99.90;;;;;;4991321;28;20221;-36
2021/04/18 12:39:11;;;;;;;27.75;15.65;;;18.70;99.90;;;;;;4990568;28;20213;-34
2021/04/18 12:41:37;;;;;;;8.98;7.70;;;18.70;99.90;;;;;;4991235;28;20631;-34
2021/04/18 12:44:05;;;;;;;10.30;8.18;;;18.60;99.90;;;;;;4995949;28;20204;-34
2021/04/18 12:46:32;;;;;;;9.90;8.30;;;18.50;99.90;;;;;;5010019;28;20208;-36
2021/04/18 12:48:58;;;;;;;15.27;9.98;;;18.40;99.90;;;;;;5010252;28;20217;-35
2021/04/18 12:51:27;;;;;;;10.57;8.00;;;18.10;99.90;;;;;;5010377;28;20224;-36
2021/04/18 12:53:55;;;;;;;13.52;8.70;;;18.10;99.90;;;;;;5010720;28;20686;-35
2021/04/18 12:56:21;;;;;;;28.33;15.27;;;18.10;99.90;;;;;;5010542;28;20205;-35
2021/04/18 12:58:48;;;;;;;11.73;7.85;;;18.00;99.90;;;;;;5010122;28;20240;-35